sensor_id;sensor_type;location;lat;lon;timestamp;temperature;humidity
14049;DHT22;7099;53.922;10.728;2022-12-18T00:03:27;-4.70;99.90
14049;DHT22;7099;53.922;10.728;2022-12-18T00:07:32;-4.70;99.90
14049;DHT22;7099;53.922;10.728;2022-12-18T00:11:37;-4.70;99.90
14049;DHT22;7099;53.922;10.728;2022-12-18T00:15:42;-4.70;99.90
14049;DHT22;7099;53.922;10.728;2022-12-18T00:19:47;-4.70;99.90
14049;DHT22;7099;53.922;10.728;2022-12-18T00:23:52;-4.70;99.90
14049;DHT22;7099;53.922;10.728;2022-12-18T00:27:57;-4.70;99.90
14049;DHT22;7099;53.922;10.728;2022-12-18T00:32:02;-4.70;99.90
14049;DHT22;7099;53.922;10.728;2022-12-18T00:36:16;-4.70;99.90
14049;DHT22;7099;53.922;10.728;2022-12-18T00:40:26;-4.80;99.90
14049;DHT22;7099;53.922;10.728;2022-12-18T00:44:30;-4.80;99.90
14049;DHT22;7099;53.922;10.728;2022-12-18T00:48:35;-4.70;99.90
14049;DHT22;7099;53.922;10.728;2022-12-18T00:52:40;-4.70;99.90
14049;DHT22;7099;53.922;10.728;2022-12-18T00:56:45;-4.80;99.90
14049;DHT22;7099;53.922;10.728;2022-12-18T01:00:53;-4.80;99.90
14049;DHT22;7099;53.922;10.728;2022-12-18T01:04:58;-4.80;99.90
14049;DHT22;7099;53.922;10.728;2022-12-18T01:09:03;-4.80;99.90
14049;DHT22;7099;53.922;10.728;2022-12-18T01:13:08;-4.90;99.90
14049;DHT22;7099;53.922;10.728;2022-12-18T01:17:13;-4.90;99.90
14049;DHT22;7099;53.922;10.728;2022-12-18T01:21:19;-5.00;99.90
14049;DHT22;7099;53.922;10.728;2022-12-18T01:25:24;-5.00;99.90
14049;DHT22;7099;53.922;10.728;2022-12-18T01:29:29;-5.00;99.90
14049;DHT22;7099;53.922;10.728;2022-12-18T01:33:34;-5.00;99.90
14049;DHT22;7099;53.922;10.728;2022-12-18T01:37:40;-5.10;99.90
14049;DHT22;7099;53.922;10.728;2022-12-18T01:41:45;-5.00;99.90
14049;DHT22;7099;53.922;10.728;2022-12-18T01:46:09;-5.00;99.90
14049;DHT22;7099;53.922;10.728;2022-12-18T01:50:20;-5.00;99.90
14049;DHT22;7099;53.922;10.728;2022-12-18T01:54:25;-5.00;99.90
14049;DHT22;7099;53.922;10.728;2022-12-18T01:58:36;-5.00;99.90
14049;DHT22;7099;53.922;10.728;2022-12-18T02:02:47;-5.00;99.90
14049;DHT22;7099;53.922;10.728;2022-12-18T02:11:53;-5.00;99.90
14049;DHT22;7099;53.922;10.728;2022-12-18T02:29:54;-5.20;99.90
14049;DHT22;7099;53.922;10.728;2022-12-18T02:34:04;-5.10;99.90
14049;DHT22;7099;53.922;10.728;2022-12-18T02:38:12;-5.10;99.90
14049;DHT22;7099;53.922;10.728;2022-12-18T02:42:18;-5.20;99.90
14049;DHT22;7099;53.922;10.728;2022-12-18T02:46:33;-5.20;99.90
14049;DHT22;7099;53.922;10.728;2022-12-18T02:50:45;-5.20;99.90
14049;DHT22;7099;53.922;10.728;2022-12-18T02:59:09;-5.20;99.90
14049;DHT22;7099;53.922;10.728;2022-12-18T03:03:31;-5.20;99.90
14049;DHT22;7099;53.922;10.728;2022-12-18T03:07:50;-5.20;99.90
14049;DHT22;7099;53.922;10.728;2022-12-18T03:12:16;-5.30;99.90
14049;DHT22;7099;53.922;10.728;2022-12-18T03:16:30;-5.30;99.90
14049;DHT22;7099;53.922;10.728;2022-12-18T03:20:37;-5.40;99.90
14049;DHT22;7099;53.922;10.728;2022-12-18T03:24:45;-5.40;99.90
14049;DHT22;7099;53.922;10.728;2022-12-18T03:28:59;-5.40;99.90
14049;DHT22;7099;53.922;10.728;2022-12-18T03:37:22;-5.40;99.90
14049;DHT22;7099;53.922;10.728;2022-12-18T03:46:08;-5.50;99.90
14049;DHT22;7099;53.922;10.728;2022-12-18T03:50:42;-5.60;99.90
14049;DHT22;7099;53.922;10.728;2022-12-18T03:54:54;-5.60;99.90
14049;DHT22;7099;53.922;10.728;2022-12-18T03:59:01;-5.60;99.90
14049;DHT22;7099;53.922;10.728;2022-12-18T04:03:08;-5.60;99.90
14049;DHT22;7099;53.922;10.728;2022-12-18T04:07:14;-5.60;99.90
14049;DHT22;7099;53.922;10.728;2022-12-18T04:11:19;-5.60;99.90
14049;DHT22;7099;53.922;10.728;2022-12-18T04:15:24;-5.60;99.90
14049;DHT22;7099;53.922;10.728;2022-12-18T04:19:30;-5.60;99.90
14049;DHT22;7099;53.922;10.728;2022-12-18T04:23:34;-5.70;99.90
14049;DHT22;7099;53.922;10.728;2022-12-18T04:27:40;-5.70;99.90
14049;DHT22;7099;53.922;10.728;2022-12-18T04:31:45;-5.80;99.90
14049;DHT22;7099;53.922;10.728;2022-12-18T04:35:50;-5.80;99.90
14049;DHT22;7099;53.922;10.728;2022-12-18T04:39:55;-5.80;99.90
14049;DHT22;7099;53.922;10.728;2022-12-18T04:44:00;-5.70;99.90
14049;DHT22;7099;53.922;10.728;2022-12-18T04:48:05;-5.70;99.90
14049;DHT22;7099;53.922;10.728;2022-12-18T04:52:10;-5.80;99.90
14049;DHT22;7099;53.922;10.728;2022-12-18T04:56:15;-5.70;99.90
14049;DHT22;7099;53.922;10.728;2022-12-18T05:00:21;-5.80;99.90
14049;DHT22;7099;53.922;10.728;2022-12-18T05:04:26;-5.70;99.90
14049;DHT22;7099;53.922;10.728;2022-12-18T05:08:31;-5.70;99.90
14049;DHT22;7099;53.922;10.728;2022-12-18T05:12:36;-5.70;99.90
14049;DHT22;7099;53.922;10.728;2022-12-18T05:17:02;-5.80;99.90
14049;DHT22;7099;53.922;10.728;2022-12-18T05:21:07;-5.80;99.90
14049;DHT22;7099;53.922;10.728;2022-12-18T05:25:12;-5.90;99.90
14049;DHT22;7099;53.922;10.728;2022-12-18T05:29:17;-5.80;99.90
14049;DHT22;7099;53.922;10.728;2022-12-18T05:33:23;-5.90;99.90
14049;DHT22;7099;53.922;10.728;2022-12-18T05:37:30;-5.90;99.90
14049;DHT22;7099;53.922;10.728;2022-12-18T05:41:35;-5.90;99.90
14049;DHT22;7099;53.922;10.728;2022-12-18T05:45:40;-5.90;99.90
14049;DHT22;7099;53.922;10.728;2022-12-18T05:49:45;-5.90;99.90
14049;DHT22;7099;53.922;10.728;2022-12-18T05:53:50;-5.90;99.90
14049;DHT22;7099;53.922;10.728;2022-12-18T05:57:55;-5.90;99.90
14049;DHT22;7099;53.922;10.728;2022-12-18T06:02:00;-5.90;99.90
14049;DHT22;7099;53.922;10.728;2022-12-18T06:06:16;-5.90;99.90
14049;DHT22;7099;53.922;10.728;2022-12-18T06:10:26;-5.90;99.90
14049;DHT22;7099;53.922;10.728;2022-12-18T06:14:31;-5.90;99.90
14049;DHT22;7099;53.922;10.728;2022-12-18T06:18:36;-6.00;99.90
14049;DHT22;7099;53.922;10.728;2022-12-18T06:22:41;-6.00;99.90
14049;DHT22;7099;53.922;10.728;2022-12-18T06:26:46;-6.00;99.90
14049;DHT22;7099;53.922;10.728;2022-12-18T06:30:51;-6.00;99.90
14049;DHT22;7099;53.922;10.728;2022-12-18T06:34:57;-6.10;99.90
14049;DHT22;7099;53.922;10.728;2022-12-18T06:39:02;-6.00;99.90
14049;DHT22;7099;53.922;10.728;2022-12-18T06:43:07;-6.00;99.90
14049;DHT22;7099;53.922;10.728;2022-12-18T06:47:12;-6.00;99.90
14049;DHT22;7099;53.922;10.728;2022-12-18T06:51:19;-6.00;99.90
14049;DHT22;7099;53.922;10.728;2022-12-18T06:55:25;-6.10;99.90
14049;DHT22;7099;53.922;10.728;2022-12-18T06:59:30;-6.10;99.90
14049;DHT22;7099;53.922;10.728;2022-12-18T07:03:35;-5.90;99.90
14049;DHT22;7099;53.922;10.728;2022-12-18T07:07:41;-6.00;99.90
14049;DHT22;7099;53.922;10.728;2022-12-18T07:11:46;-6.10;99.90
14049;DHT22;7099;53.922;10.728;2022-12-18T07:15:51;-6.10;99.90
14049;DHT22;7099;53.922;10.728;2022-12-18T07:19:56;-6.20;99.90
14049;DHT22;7099;53.922;10.728;2022-12-18T07:24:01;-6.20;99.90
14049;DHT22;7099;53.922;10.728;2022-12-18T07:28:06;-6.20;99.90
14049;DHT22;7099;53.922;10.728;2022-12-18T07:32:17;-6.20;99.90
14049;DHT22;7099;53.922;10.728;2022-12-18T07:36:22;-6.20;99.90
14049;DHT22;7099;53.922;10.728;2022-12-18T07:40:27;-6.20;99.90
14049;DHT22;7099;53.922;10.728;2022-12-18T07:44:32;-6.30;99.90
14049;DHT22;7099;53.922;10.728;2022-12-18T07:48:37;-6.30;99.90
14049;DHT22;7099;53.922;10.728;2022-12-18T07:52:42;-6.30;99.90
14049;DHT22;7099;53.922;10.728;2022-12-18T07:56:47;-6.30;99.90
14049;DHT22;7099;53.922;10.728;2022-12-18T08:00:52;-6.30;99.90
14049;DHT22;7099;53.922;10.728;2022-12-18T08:04:57;-6.30;99.90
14049;DHT22;7099;53.922;10.728;2022-12-18T08:09:03;-6.30;99.90
14049;DHT22;7099;53.922;10.728;2022-12-18T08:13:08;-6.30;99.90
14049;DHT22;7099;53.922;10.728;2022-12-18T08:17:12;-6.30;99.90
14049;DHT22;7099;53.922;10.728;2022-12-18T08:21:23;-6.30;99.90
14049;DHT22;7099;53.922;10.728;2022-12-18T08:25:30;-6.20;99.90
14049;DHT22;7099;53.922;10.728;2022-12-18T08:29:35;-6.20;99.90
14049;DHT22;7099;53.922;10.728;2022-12-18T08:33:40;-6.20;99.90
14049;DHT22;7099;53.922;10.728;2022-12-18T08:37:46;-6.10;99.90
14049;DHT22;7099;53.922;10.728;2022-12-18T08:41:51;-6.10;99.90
14049;DHT22;7099;53.922;10.728;2022-12-18T08:46:21;-6.10;99.90
14049;DHT22;7099;53.922;10.728;2022-12-18T08:50:27;-6.00;99.90
14049;DHT22;7099;53.922;10.728;2022-12-18T08:54:31;-6.00;99.90
14049;DHT22;7099;53.922;10.728;2022-12-18T08:58:37;-5.90;99.90
14049;DHT22;7099;53.922;10.728;2022-12-18T09:02:42;-5.90;99.90
14049;DHT22;7099;53.922;10.728;2022-12-18T09:06:47;-5.90;99.90
14049;DHT22;7099;53.922;10.728;2022-12-18T09:10:52;-5.80;99.90
14049;DHT22;7099;53.922;10.728;2022-12-18T09:14:57;-5.80;99.90
14049;DHT22;7099;53.922;10.728;2022-12-18T09:19:03;-5.70;99.90
14049;DHT22;7099;53.922;10.728;2022-12-18T09:23:09;-5.60;99.90
14049;DHT22;7099;53.922;10.728;2022-12-18T09:27:15;-5.50;99.90
14049;DHT22;7099;53.922;10.728;2022-12-18T09:31:23;-5.40;99.90
14049;DHT22;7099;53.922;10.728;2022-12-18T09:35:28;-5.30;99.90
14049;DHT22;7099;53.922;10.728;2022-12-18T09:39:34;-5.30;99.90
14049;DHT22;7099;53.922;10.728;2022-12-18T09:43:45;-5.20;99.90
14049;DHT22;7099;53.922;10.728;2022-12-18T09:47:54;-5.10;99.90
14049;DHT22;7099;53.922;10.728;2022-12-18T09:52:09;-5.00;99.90
14049;DHT22;7099;53.922;10.728;2022-12-18T09:56:19;-4.90;99.90
14049;DHT22;7099;53.922;10.728;2022-12-18T10:00:27;-4.90;99.90
14049;DHT22;7099;53.922;10.728;2022-12-18T10:04:32;-4.80;99.90
14049;DHT22;7099;53.922;10.728;2022-12-18T10:08:40;-4.70;99.90
14049;DHT22;7099;53.922;10.728;2022-12-18T10:13:09;-4.70;99.90
14049;DHT22;7099;53.922;10.728;2022-12-18T10:17:39;-4.60;99.90
14049;DHT22;7099;53.922;10.728;2022-12-18T10:26:47;-4.40;99.90
14049;DHT22;7099;53.922;10.728;2022-12-18T10:30:52;-4.30;99.90
14049;DHT22;7099;53.922;10.728;2022-12-18T10:34:58;-4.30;99.90
14049;DHT22;7099;53.922;10.728;2022-12-18T10:39:21;-4.20;99.90
14049;DHT22;7099;53.922;10.728;2022-12-18T10:43:36;-4.20;99.90
14049;DHT22;7099;53.922;10.728;2022-12-18T10:47:48;-4.00;99.90
14049;DHT22;7099;53.922;10.728;2022-12-18T10:52:14;-3.90;99.90
14049;DHT22;7099;53.922;10.728;2022-12-18T10:56:24;-3.80;99.90
14049;DHT22;7099;53.922;10.728;2022-12-18T11:00:30;-3.70;99.90
14049;DHT22;7099;53.922;10.728;2022-12-18T11:04:50;-3.70;99.90
14049;DHT22;7099;53.922;10.728;2022-12-18T11:13:29;-3.50;99.90
14049;DHT22;7099;53.922;10.728;2022-12-18T11:17:35;-3.40;99.90
14049;DHT22;7099;53.922;10.728;2022-12-18T11:21:41;-3.40;99.90
14049;DHT22;7099;53.922;10.728;2022-12-18T11:26:05;-3.30;99.90
14049;DHT22;7099;53.922;10.728;2022-12-18T11:30:35;-3.30;99.90
14049;DHT22;7099;53.922;10.728;2022-12-18T11:34:44;-3.20;99.90
14049;DHT22;7099;53.922;10.728;2022-12-18T11:38:53;-3.20;99.90
14049;DHT22;7099;53.922;10.728;2022-12-18T11:43:14;-3.10;99.90
14049;DHT22;7099;53.922;10.728;2022-12-18T11:56:48;-3.00;99.90
14049;DHT22;7099;53.922;10.728;2022-12-18T12:06:49;-2.90;99.90
14049;DHT22;7099;53.922;10.728;2022-12-18T12:11:13;-2.90;99.90
14049;DHT22;7099;53.922;10.728;2022-12-18T12:20:10;-2.70;99.90
14049;DHT22;7099;53.922;10.728;2022-12-18T12:33:31;-2.60;99.90
14049;DHT22;7099;53.922;10.728;2022-12-18T12:47:01;-2.60;99.90
14049;DHT22;7099;53.922;10.728;2022-12-18T12:55:36;-2.60;99.90
14049;DHT22;7099;53.922;10.728;2022-12-18T13:04:10;-2.50;99.90
14049;DHT22;7099;53.922;10.728;2022-12-18T13:08:28;-2.50;99.90
14049;DHT22;7099;53.922;10.728;2022-12-18T13:12:50;-2.50;99.90
14049;DHT22;7099;53.922;10.728;2022-12-18T13:21:32;-2.50;99.90
14049;DHT22;7099;53.922;10.728;2022-12-18T13:25:38;-2.50;99.90
14049;DHT22;7099;53.922;10.728;2022-12-18T13:29:45;-2.40;99.90
14049;DHT22;7099;53.922;10.728;2022-12-18T13:34:24;-2.50;99.90
14049;DHT22;7099;53.922;10.728;2022-12-18T13:38:35;-2.40;99.90
14049;DHT22;7099;53.922;10.728;2022-12-18T13:42:41;-2.50;99.90
14049;DHT22;7099;53.922;10.728;2022-12-18T13:47:05;-2.50;99.90
14049;DHT22;7099;53.922;10.728;2022-12-18T13:51:33;-2.50;99.90
14049;DHT22;7099;53.922;10.728;2022-12-18T13:55:38;-2.50;99.90
14049;DHT22;7099;53.922;10.728;2022-12-18T13:59:51;-2.60;99.90
14049;DHT22;7099;53.922;10.728;2022-12-18T14:04:09;-2.60;99.90
14049;DHT22;7099;53.922;10.728;2022-12-18T14:08:27;-2.60;99.90
14049;DHT22;7099;53.922;10.728;2022-12-18T14:12:37;-2.70;99.90
14049;DHT22;7099;53.922;10.728;2022-12-18T14:17:09;-2.70;99.90
14049;DHT22;7099;53.922;10.728;2022-12-18T14:21:29;-2.70;99.90
14049;DHT22;7099;53.922;10.728;2022-12-18T14:25:36;-2.80;99.90
14049;DHT22;7099;53.922;10.728;2022-12-18T14:29:43;-2.80;99.90
14049;DHT22;7099;53.922;10.728;2022-12-18T14:33:48;-2.80;99.90
14049;DHT22;7099;53.922;10.728;2022-12-18T14:38:07;-2.80;99.90
14049;DHT22;7099;53.922;10.728;2022-12-18T14:42:32;-2.90;99.90
14049;DHT22;7099;53.922;10.728;2022-12-18T14:46:48;-2.90;99.90
14049;DHT22;7099;53.922;10.728;2022-12-18T14:51:03;-3.00;99.90
14049;DHT22;7099;53.922;10.728;2022-12-18T14:55:19;-3.00;99.90
14049;DHT22;7099;53.922;10.728;2022-12-18T14:59:26;-3.00;99.90
14049;DHT22;7099;53.922;10.728;2022-12-18T15:03:31;-3.10;99.90
14049;DHT22;7099;53.922;10.728;2022-12-18T15:07:46;-3.10;99.90
14049;DHT22;7099;53.922;10.728;2022-12-18T15:11:58;-3.10;99.90
14049;DHT22;7099;53.922;10.728;2022-12-18T15:16:11;-3.20;99.90
14049;DHT22;7099;53.922;10.728;2022-12-18T15:20:17;-3.20;99.90
14049;DHT22;7099;53.922;10.728;2022-12-18T15:24:26;-3.30;99.90
14049;DHT22;7099;53.922;10.728;2022-12-18T15:28:43;-3.30;99.90
14049;DHT22;7099;53.922;10.728;2022-12-18T15:32:49;-3.30;99.90
14049;DHT22;7099;53.922;10.728;2022-12-18T15:36:54;-3.40;99.90
14049;DHT22;7099;53.922;10.728;2022-12-18T15:41:00;-3.40;99.90
14049;DHT22;7099;53.922;10.728;2022-12-18T15:45:05;-3.40;99.90
14049;DHT22;7099;53.922;10.728;2022-12-18T15:49:12;-3.40;99.90
14049;DHT22;7099;53.922;10.728;2022-12-18T15:53:17;-3.50;99.90
14049;DHT22;7099;53.922;10.728;2022-12-18T15:57:23;-3.50;99.90
14049;DHT22;7099;53.922;10.728;2022-12-18T16:01:30;-3.50;99.90
14049;DHT22;7099;53.922;10.728;2022-12-18T16:05:36;-3.50;99.90
14049;DHT22;7099;53.922;10.728;2022-12-18T16:09:41;-3.50;99.90
14049;DHT22;7099;53.922;10.728;2022-12-18T16:13:46;-3.40;99.90
14049;DHT22;7099;53.922;10.728;2022-12-18T16:17:51;-3.50;99.90
14049;DHT22;7099;53.922;10.728;2022-12-18T16:21:57;-3.50;99.90
14049;DHT22;7099;53.922;10.728;2022-12-18T16:26:03;-3.50;99.90
14049;DHT22;7099;53.922;10.728;2022-12-18T16:30:17;-3.50;99.90
14049;DHT22;7099;53.922;10.728;2022-12-18T16:34:25;-3.50;99.90
14049;DHT22;7099;53.922;10.728;2022-12-18T16:38:38;-3.50;99.90
14049;DHT22;7099;53.922;10.728;2022-12-18T16:42:44;-3.50;99.90
14049;DHT22;7099;53.922;10.728;2022-12-18T16:46:50;-3.50;99.90
14049;DHT22;7099;53.922;10.728;2022-12-18T16:51:03;-3.50;99.90
14049;DHT22;7099;53.922;10.728;2022-12-18T16:55:09;-3.50;99.90
14049;DHT22;7099;53.922;10.728;2022-12-18T16:59:14;-3.50;99.90
14049;DHT22;7099;53.922;10.728;2022-12-18T17:03:43;-3.50;99.90
14049;DHT22;7099;53.922;10.728;2022-12-18T17:07:50;-3.40;99.90
14049;DHT22;7099;53.922;10.728;2022-12-18T17:11:55;-3.40;99.90
14049;DHT22;7099;53.922;10.728;2022-12-18T17:16:07;-3.40;99.90
14049;DHT22;7099;53.922;10.728;2022-12-18T17:20:13;-3.40;99.90
14049;DHT22;7099;53.922;10.728;2022-12-18T17:24:18;-3.40;99.90
14049;DHT22;7099;53.922;10.728;2022-12-18T17:28:25;-3.40;99.90
14049;DHT22;7099;53.922;10.728;2022-12-18T17:32:31;-3.30;99.90
14049;DHT22;7099;53.922;10.728;2022-12-18T17:36:36;-3.30;99.90
14049;DHT22;7099;53.922;10.728;2022-12-18T17:40:41;-3.30;99.90
14049;DHT22;7099;53.922;10.728;2022-12-18T17:44:50;-3.30;99.90
14049;DHT22;7099;53.922;10.728;2022-12-18T17:48:56;-3.30;99.90
14049;DHT22;7099;53.922;10.728;2022-12-18T17:53:02;-3.20;99.90
14049;DHT22;7099;53.922;10.728;2022-12-18T17:57:07;-3.20;99.90
14049;DHT22;7099;53.922;10.728;2022-12-18T18:01:13;-3.30;99.90
14049;DHT22;7099;53.922;10.728;2022-12-18T18:05:20;-3.20;99.90
14049;DHT22;7099;53.922;10.728;2022-12-18T18:09:25;-3.20;99.90
14049;DHT22;7099;53.922;10.728;2022-12-18T18:13:30;-3.20;99.90
14049;DHT22;7099;53.922;10.728;2022-12-18T18:17:54;-3.10;99.90
14049;DHT22;7099;53.922;10.728;2022-12-18T18:21:59;-3.10;99.90
14049;DHT22;7099;53.922;10.728;2022-12-18T18:26:07;-3.00;99.90
14049;DHT22;7099;53.922;10.728;2022-12-18T18:30:13;-3.00;99.90
14049;DHT22;7099;53.922;10.728;2022-12-18T18:34:23;-3.00;99.90
14049;DHT22;7099;53.922;10.728;2022-12-18T18:38:29;-3.00;99.90
14049;DHT22;7099;53.922;10.728;2022-12-18T18:42:34;-3.00;99.90
14049;DHT22;7099;53.922;10.728;2022-12-18T18:46:39;-2.90;99.90
14049;DHT22;7099;53.922;10.728;2022-12-18T18:50:57;-2.90;99.90
14049;DHT22;7099;53.922;10.728;2022-12-18T18:55:07;-2.90;99.90
14049;DHT22;7099;53.922;10.728;2022-12-18T18:59:28;-2.90;99.90
14049;DHT22;7099;53.922;10.728;2022-12-18T19:03:36;-2.90;99.90
14049;DHT22;7099;53.922;10.728;2022-12-18T19:07:41;-2.90;99.90
14049;DHT22;7099;53.922;10.728;2022-12-18T19:11:46;-2.80;99.90
14049;DHT22;7099;53.922;10.728;2022-12-18T19:16:10;-2.80;99.90
14049;DHT22;7099;53.922;10.728;2022-12-18T19:20:15;-2.80;99.90
14049;DHT22;7099;53.922;10.728;2022-12-18T19:24:20;-2.80;99.90
14049;DHT22;7099;53.922;10.728;2022-12-18T19:28:26;-2.70;99.90
14049;DHT22;7099;53.922;10.728;2022-12-18T19:32:32;-2.70;99.90
14049;DHT22;7099;53.922;10.728;2022-12-18T19:36:38;-2.70;99.90
14049;DHT22;7099;53.922;10.728;2022-12-18T19:40:44;-2.70;99.90
14049;DHT22;7099;53.922;10.728;2022-12-18T19:44:50;-2.70;99.90
14049;DHT22;7099;53.922;10.728;2022-12-18T19:48:55;-2.70;99.90
14049;DHT22;7099;53.922;10.728;2022-12-18T19:53:02;-2.60;99.90
14049;DHT22;7099;53.922;10.728;2022-12-18T19:57:09;-2.70;99.90
14049;DHT22;7099;53.922;10.728;2022-12-18T20:01:17;-2.60;99.90
14049;DHT22;7099;53.922;10.728;2022-12-18T20:05:24;-2.60;99.90
14049;DHT22;7099;53.922;10.728;2022-12-18T20:09:29;-2.60;99.90
14049;DHT22;7099;53.922;10.728;2022-12-18T20:13:35;-2.60;99.90
14049;DHT22;7099;53.922;10.728;2022-12-18T20:17:40;-2.60;99.90
14049;DHT22;7099;53.922;10.728;2022-12-18T20:21:45;-2.60;99.90
14049;DHT22;7099;53.922;10.728;2022-12-18T20:25:54;-2.50;99.90
14049;DHT22;7099;53.922;10.728;2022-12-18T20:29:59;-2.50;99.90
14049;DHT22;7099;53.922;10.728;2022-12-18T20:34:04;-2.50;99.90
14049;DHT22;7099;53.922;10.728;2022-12-18T20:38:10;-2.50;99.90
14049;DHT22;7099;53.922;10.728;2022-12-18T20:42:16;-2.50;99.90
14049;DHT22;7099;53.922;10.728;2022-12-18T20:46:20;-2.50;99.90
14049;DHT22;7099;53.922;10.728;2022-12-18T20:50:26;-2.50;99.90
14049;DHT22;7099;53.922;10.728;2022-12-18T20:54:31;-2.50;99.90
14049;DHT22;7099;53.922;10.728;2022-12-18T20:58:36;-2.50;99.90
14049;DHT22;7099;53.922;10.728;2022-12-18T21:02:41;-2.50;99.90
14049;DHT22;7099;53.922;10.728;2022-12-18T21:06:48;-2.40;99.90
14049;DHT22;7099;53.922;10.728;2022-12-18T21:15:42;-2.40;99.90
14049;DHT22;7099;53.922;10.728;2022-12-18T21:19:47;-2.40;99.90
14049;DHT22;7099;53.922;10.728;2022-12-18T21:23:53;-2.40;99.90
14049;DHT22;7099;53.922;10.728;2022-12-18T21:27:58;-2.40;99.90
14049;DHT22;7099;53.922;10.728;2022-12-18T21:32:04;-2.40;99.90
14049;DHT22;7099;53.922;10.728;2022-12-18T21:36:09;-2.30;99.90
14049;DHT22;7099;53.922;10.728;2022-12-18T21:40:14;-2.30;99.90
14049;DHT22;7099;53.922;10.728;2022-12-18T21:44:19;-2.30;99.90
14049;DHT22;7099;53.922;10.728;2022-12-18T21:48:24;-2.30;99.90
14049;DHT22;7099;53.922;10.728;2022-12-18T21:52:29;-2.30;99.90
14049;DHT22;7099;53.922;10.728;2022-12-18T21:56:53;-2.20;99.90
14049;DHT22;7099;53.922;10.728;2022-12-18T22:01:02;-2.20;99.90
14049;DHT22;7099;53.922;10.728;2022-12-18T22:05:07;-2.20;99.90
14049;DHT22;7099;53.922;10.728;2022-12-18T22:09:15;-2.10;99.90
14049;DHT22;7099;53.922;10.728;2022-12-18T22:13:21;-2.10;99.90
14049;DHT22;7099;53.922;10.728;2022-12-18T22:17:26;-2.10;99.90
14049;DHT22;7099;53.922;10.728;2022-12-18T22:21:35;-2.00;99.90
14049;DHT22;7099;53.922;10.728;2022-12-18T22:25:42;-2.10;99.90
14049;DHT22;7099;53.922;10.728;2022-12-18T22:29:46;-2.00;99.90
14049;DHT22;7099;53.922;10.728;2022-12-18T22:34:08;-2.00;99.90
14049;DHT22;7099;53.922;10.728;2022-12-18T22:38:13;-2.00;99.90
14049;DHT22;7099;53.922;10.728;2022-12-18T22:42:18;-2.00;99.90
14049;DHT22;7099;53.922;10.728;2022-12-18T22:46:24;-2.00;99.90
14049;DHT22;7099;53.922;10.728;2022-12-18T22:50:30;-1.90;99.90
14049;DHT22;7099;53.922;10.728;2022-12-18T22:54:37;-1.90;99.90
14049;DHT22;7099;53.922;10.728;2022-12-18T22:58:42;-1.90;99.90
14049;DHT22;7099;53.922;10.728;2022-12-18T23:02:47;-1.90;99.90
14049;DHT22;7099;53.922;10.728;2022-12-18T23:06:54;-1.80;99.90
14049;DHT22;7099;53.922;10.728;2022-12-18T23:10:59;-1.90;99.90
14049;DHT22;7099;53.922;10.728;2022-12-18T23:15:04;-1.80;99.90
14049;DHT22;7099;53.922;10.728;2022-12-18T23:19:10;-1.80;99.90
14049;DHT22;7099;53.922;10.728;2022-12-18T23:23:15;-1.80;99.90
14049;DHT22;7099;53.922;10.728;2022-12-18T23:27:20;-1.80;99.90
14049;DHT22;7099;53.922;10.728;2022-12-18T23:31:31;-1.80;99.90
14049;DHT22;7099;53.922;10.728;2022-12-18T23:35:38;-1.70;99.90
14049;DHT22;7099;53.922;10.728;2022-12-18T23:39:43;-1.70;99.90
14049;DHT22;7099;53.922;10.728;2022-12-18T23:43:48;-1.70;99.90
14049;DHT22;7099;53.922;10.728;2022-12-18T23:47:53;-1.70;99.90
14049;DHT22;7099;53.922;10.728;2022-12-18T23:51:58;-1.70;99.90
14049;DHT22;7099;53.922;10.728;2022-12-18T23:56:03;-1.70;99.90
